This is the latest recevied weather packets stored in our database for station/object ED2YAA-3. If no packets are shown the sender has not sent any weather packets the latest 10 day(s).
| Time | Temp. | Humidity | Pressure | Rain* | Wind** | Luminosity | Snow |
|---|---|---|---|---|---|---|---|
| 1777113326 | 21.67° C | 57% | 999.5 hPa | 0 mm | - | - | - |
| 1777109870 | 28.33° C | 42% | 999.7 hPa | 0 mm | - | - | - |
| 1777109725 | 28.89° C | 43% | 999.7 hPa | 0 mm | - | - | - |
| 1777106269 | 22.78° C | 56% | 1000 hPa | 0 mm | - | - | - |
| 1777106125 | 22.78° C | 57% | 1000 hPa | 0 mm | - | - | - |
| 1777102669 | 20.56° C | 69% | 999.9 hPa | 0 mm | - | - | - |
| 1777102527 | 20.56° C | 70% | 999.9 hPa | 0 mm | - | - | - |
| 1777100586 | 17.78° C | 77% | 999.9 hPa | 0 mm | - | - | - |
| 1777098925 | 16.11° C | 81% | 999.7 hPa | 0 mm | - | - | - |
| 1777096988 | 14.44° C | 82% | 999.5 hPa | 0 mm | - | - | - |
| 1777095327 | 14.44° C | 82% | 999.5 hPa | 0 mm | - | - | - |
| 1777093387 | 14.44° C | 82% | 999.1 hPa | 0 mm | - | - | - |
| 1777091726 | 15° C | 82% | 999.1 hPa | 0 mm | - | - | - |
| 1777089786 | 15° C | 82% | 999.1 hPa | 0 mm | - | - | - |
| 1777088125 | 15° C | 82% | 998.9 hPa | 0 mm | - | - | - |
| 1777086186 | 15° C | 83% | 999 hPa | 0 mm | - | - | - |
| 1777084525 | 14.44° C | 83% | 998.9 hPa | 0 mm | - | - | - |
| 1777082588 | 14.44° C | 83% | 999 hPa | 0 mm | - | - | - |
| 1777080924 | 13.89° C | 83% | 998.9 hPa | 0 mm | - | - | - |
| 1777078987 | 13.89° C | 83% | 999.1 hPa | 0 mm | - | - | - |
| 1777077324 | 13.89° C | 83% | 999.1 hPa | 0 mm | - | - | - |
| 1777075387 | 14.44° C | 82% | 999.1 hPa | 0 mm | - | - | - |
| 1777073725 | 15° C | 82% | 999.5 hPa | 0 mm | - | - | - |
| 1777071786 | 15° C | 81% | 999.4 hPa | 0 mm | - | - | - |
| 1777070124 | 15.56° C | 80% | 999.3 hPa | 0 mm | - | - | - |
* Rain latest hour (hover to see other rain measurements)
** Current wind speed in m/s (hover to see current wind gust speed)